createdAt,value
2018-01-23T00:01:42.750Z,6.70
2018-01-23T00:04:45.010Z,6.80
2018-01-23T00:07:47.270Z,6.80
2018-01-23T00:10:48.785Z,6.80
2018-01-23T00:13:50.346Z,6.70
2018-01-23T00:16:51.849Z,6.70
2018-01-23T00:19:53.352Z,6.70
2018-01-23T00:22:54.877Z,6.70
2018-01-23T00:25:56.408Z,6.70
2018-01-23T00:32:06.074Z,6.60
2018-01-23T00:35:07.598Z,6.70
2018-01-23T00:38:09.070Z,6.70
2018-01-23T00:41:10.661Z,6.70
2018-01-23T00:44:12.157Z,6.70
2018-01-23T00:47:13.674Z,6.80
2018-01-23T00:50:15.304Z,6.80
2018-01-23T00:53:16.744Z,6.80
2018-01-23T00:56:19.025Z,6.80
2018-01-23T00:59:20.514Z,6.80
2018-01-23T01:02:22.011Z,6.80
2018-01-23T01:05:23.525Z,6.70
2018-01-23T01:08:25.114Z,6.80
2018-01-23T01:11:26.606Z,6.80
2018-01-23T01:14:28.106Z,6.90
2018-01-23T01:17:29.665Z,6.80
2018-01-23T01:20:31.157Z,6.80
2018-01-23T01:23:33.446Z,6.80
2018-01-23T01:26:34.950Z,6.80
2018-01-23T01:29:36.480Z,6.70
2018-01-23T01:32:37.924Z,6.70
2018-01-23T01:35:39.375Z,6.70
2018-01-23T01:38:40.884Z,6.70
2018-01-23T01:41:42.362Z,6.70
2018-01-23T01:44:44.685Z,6.60
2018-01-23T01:47:46.238Z,6.40
2018-01-23T01:50:47.846Z,6.60
2018-01-23T01:53:50.077Z,6.70
2018-01-23T01:56:51.610Z,6.70
2018-01-23T01:59:53.117Z,6.50
2018-01-23T02:02:54.629Z,6.70
2018-01-23T02:05:56.187Z,6.60
2018-01-23T02:08:57.775Z,6.70
2018-01-23T02:11:59.263Z,6.70
2018-01-23T02:15:00.788Z,6.70
2018-01-23T02:18:03.101Z,6.70
2018-01-23T02:21:04.649Z,6.70
2018-01-23T02:24:06.163Z,6.70
2018-01-23T02:27:07.689Z,6.70
2018-01-23T02:30:09.200Z,6.70
2018-01-23T02:33:10.723Z,6.70
2018-01-23T02:36:12.294Z,6.70
2018-01-23T02:39:13.721Z,6.60
2018-01-23T02:42:15.288Z,6.60
2018-01-23T02:45:17.534Z,6.60
2018-01-23T02:48:19.065Z,6.60
2018-01-23T02:51:20.558Z,6.60
2018-01-23T02:54:22.893Z,6.60
2018-01-23T02:57:24.485Z,6.60
2018-01-23T03:00:25.984Z,6.60
2018-01-23T03:03:27.471Z,6.60
2018-01-23T03:06:28.976Z,6.60
2018-01-23T03:09:31.217Z,6.60
2018-01-23T03:12:32.753Z,6.60
2018-01-23T03:15:34.220Z,6.40
2018-01-23T03:18:35.716Z,6.60
2018-01-23T03:21:37.190Z,6.50
2018-01-23T03:24:38.767Z,6.60
2018-01-23T03:27:40.214Z,6.60
2018-01-23T03:30:41.750Z,6.60
2018-01-23T03:33:43.254Z,6.30
2018-01-23T03:36:45.515Z,6.60
2018-01-23T03:39:46.971Z,6.50
2018-01-23T03:42:48.601Z,6.60
2018-01-23T03:45:50.116Z,6.60
2018-01-23T03:48:51.683Z,6.60
2018-01-23T03:51:53.237Z,6.50
2018-01-23T03:54:54.748Z,6.60
2018-01-23T03:57:56.226Z,6.50
2018-01-23T04:00:58.522Z,6.60
2018-01-23T04:04:00.030Z,6.60
2018-01-23T04:07:01.583Z,6.30
2018-01-23T04:10:03.139Z,6.60
2018-01-23T04:13:04.635Z,6.50
2018-01-23T04:16:06.093Z,6.50
2018-01-23T04:19:07.588Z,6.40
2018-01-23T04:22:09.033Z,6.50
2018-01-23T04:25:10.516Z,6.40
2018-01-23T04:28:12.017Z,6.40
2018-01-23T04:31:13.462Z,6.40
2018-01-23T04:34:14.981Z,6.30
2018-01-23T04:37:17.164Z,6.40
2018-01-23T04:40:19.418Z,6.40
2018-01-23T04:43:21.686Z,6.40
2018-01-23T04:46:23.144Z,6.40
2018-01-23T04:49:25.441Z,6.40
2018-01-23T04:52:26.932Z,6.30
2018-01-23T04:55:28.418Z,6.20
2018-01-23T04:58:30.669Z,6.40
2018-01-23T05:01:32.186Z,6.30
2018-01-23T05:04:33.654Z,6.40
2018-01-23T05:07:35.141Z,6.40
2018-01-23T05:10:36.789Z,6.30
2018-01-23T05:13:38.243Z,6.50
2018-01-23T05:16:39.776Z,6.50
2018-01-23T05:19:41.310Z,6.40
2018-01-23T05:22:42.887Z,6.50
2018-01-23T05:25:45.121Z,6.50
2018-01-23T05:28:46.548Z,6.50
2018-01-23T05:31:48.821Z,6.40
2018-01-23T05:34:51.012Z,6.50
2018-01-23T05:37:52.565Z,6.50
2018-01-23T05:40:54.054Z,6.50
2018-01-23T05:43:55.543Z,6.50
2018-01-23T05:46:57.053Z,6.60
2018-01-23T05:49:58.624Z,6.50
2018-01-23T05:53:01.639Z,6.40
2018-01-23T05:56:03.887Z,6.60
2018-01-23T05:59:05.395Z,6.50
2018-01-23T06:02:06.894Z,6.60
2018-01-23T06:05:08.400Z,6.60
2018-01-23T06:08:09.920Z,6.60
2018-01-23T06:11:11.502Z,6.60
2018-01-23T06:14:13.711Z,6.50
2018-01-23T06:17:15.208Z,6.50
2018-01-23T06:20:16.791Z,6.50
2018-01-23T06:23:19.031Z,6.60
2018-01-23T06:26:20.564Z,6.60
2018-01-23T06:29:22.034Z,6.50
2018-01-23T06:32:23.580Z,6.50
2018-01-23T06:35:25.053Z,6.40
2018-01-23T06:38:27.349Z,6.50
2018-01-23T06:41:29.661Z,6.60
2018-01-23T06:44:31.129Z,6.60
2018-01-23T06:47:32.680Z,6.50
2018-01-23T06:50:34.138Z,6.40
2018-01-23T06:53:35.628Z,6.50
2018-01-23T06:56:37.942Z,6.50
2018-01-23T06:59:39.424Z,6.50
2018-01-23T07:02:40.922Z,6.60
2018-01-23T07:05:42.455Z,6.50
2018-01-23T07:08:44.694Z,6.60
2018-01-23T07:11:46.206Z,6.60
2018-01-23T07:14:47.712Z,6.60
2018-01-23T07:17:49.175Z,6.50
2018-01-23T07:20:51.336Z,6.60
2018-01-23T07:23:52.775Z,6.50
2018-01-23T07:26:54.211Z,6.70
2018-01-23T07:29:55.655Z,6.80
2018-01-23T07:32:57.006Z,6.80
2018-01-23T07:35:58.369Z,6.70
2018-01-23T07:38:59.787Z,6.70
2018-01-23T07:42:01.186Z,6.60
2018-01-23T07:45:02.646Z,6.60
2018-01-23T07:48:04.075Z,6.60
2018-01-23T07:51:05.577Z,6.70
2018-01-23T07:54:07.731Z,6.70
2018-01-23T07:57:09.168Z,6.70
2018-01-23T08:00:10.533Z,6.70
2018-01-23T08:03:12.017Z,6.90
2018-01-23T08:06:14.309Z,6.90
2018-01-23T08:09:15.701Z,6.90
2018-01-23T08:12:17.183Z,7.00
2018-01-23T08:15:18.534Z,6.90
2018-01-23T08:18:20.755Z,6.90
2018-01-23T08:21:22.318Z,7.00
2018-01-23T08:24:23.774Z,6.80
2018-01-23T08:27:25.123Z,6.80
2018-01-23T08:30:26.491Z,6.80
2018-01-23T08:33:27.877Z,6.90
2018-01-23T08:36:30.037Z,6.90
2018-01-23T08:39:31.529Z,6.70
2018-01-23T08:42:32.953Z,7.00
2018-01-23T08:45:35.250Z,7.00
2018-01-23T08:48:36.604Z,6.90
2018-01-23T08:51:37.968Z,7.00
2018-01-23T08:54:39.345Z,6.70
2018-01-23T08:57:40.752Z,7.20
2018-01-23T09:00:42.172Z,6.90
2018-01-23T09:03:44.235Z,7.10
2018-01-23T09:06:45.592Z,7.00
2018-01-23T09:09:47.667Z,7.00
2018-01-23T09:12:50.327Z,7.10
2018-01-23T09:15:51.664Z,7.10
2018-01-23T09:18:53.054Z,7.10
2018-01-23T09:21:55.167Z,7.10
2018-01-23T09:24:56.466Z,7.10
2018-01-23T09:27:58.586Z,7.20
2018-01-23T09:30:59.960Z,7.20
2018-01-23T09:34:01.396Z,6.90
2018-01-23T09:37:02.749Z,7.10
2018-01-23T09:40:04.136Z,7.30
2018-01-23T09:43:06.349Z,7.30
2018-01-23T09:46:07.676Z,7.30
2018-01-23T09:49:09.064Z,7.20
2018-01-23T09:52:10.398Z,7.30
2018-01-23T09:55:11.742Z,7.50
2018-01-23T09:58:13.089Z,7.40
2018-01-23T10:01:14.446Z,7.10
2018-01-23T10:04:15.881Z,7.30
2018-01-23T10:07:17.216Z,7.30
2018-01-23T10:10:19.330Z,7.30
2018-01-23T10:13:20.687Z,7.30
2018-01-23T10:16:22.106Z,7.20
2018-01-23T10:19:23.506Z,7.40
2018-01-23T10:25:32.967Z,7.40
2018-01-23T10:31:42.597Z,7.50
2018-01-23T10:34:44.077Z,7.40
2018-01-23T10:37:45.466Z,7.40
2018-01-23T10:40:47.557Z,7.40
2018-01-23T10:43:48.956Z,7.30
2018-01-23T10:46:57.258Z,7.50
2018-01-23T10:49:58.646Z,7.60
2018-01-23T10:53:00.845Z,7.60
2018-01-23T10:56:02.253Z,7.40
2018-01-23T10:59:04.446Z,7.60
2018-01-23T11:02:05.854Z,7.60
2018-01-23T11:05:07.276Z,7.50
2018-01-23T11:08:08.672Z,7.70
2018-01-23T11:11:10.127Z,7.70
2018-01-23T11:14:12.425Z,7.70
2018-01-23T11:17:13.799Z,7.60
2018-01-23T11:20:15.151Z,7.60
2018-01-23T11:23:16.519Z,7.70
2018-01-23T11:26:17.939Z,7.70
2018-01-23T11:29:19.306Z,7.80
2018-01-23T11:32:20.685Z,7.70
2018-01-23T11:35:22.039Z,7.60
2018-01-23T11:38:23.476Z,7.70
2018-01-23T11:41:24.954Z,7.90
2018-01-23T11:44:26.268Z,7.90
2018-01-23T11:47:27.685Z,7.90
2018-01-23T11:50:29.132Z,8.00
2018-01-23T11:53:31.252Z,8.00
2018-01-23T11:56:32.606Z,8.00
2018-01-23T11:59:34.009Z,8.00
2018-01-23T12:02:35.404Z,7.70
2018-01-23T12:05:36.831Z,7.90
2018-01-23T12:08:38.194Z,7.90
2018-01-23T12:11:39.619Z,7.90
2018-01-23T12:14:40.981Z,7.90
2018-01-23T12:17:42.388Z,7.70
2018-01-23T12:20:43.789Z,7.90
2018-01-23T12:23:45.167Z,7.90
2018-01-23T12:26:47.374Z,7.90
2018-01-23T12:29:48.697Z,7.90
2018-01-23T12:32:50.153Z,8.00
2018-01-23T12:35:51.546Z,7.80
2018-01-23T12:38:52.943Z,8.00
2018-01-23T12:41:54.304Z,8.00
2018-01-23T12:44:55.696Z,8.00
2018-01-23T12:47:57.107Z,7.80
2018-01-23T12:50:58.482Z,7.90
2018-01-23T12:54:00.616Z,8.00
2018-01-23T12:57:01.912Z,7.90
2018-01-23T13:00:04.077Z,8.00
2018-01-23T13:03:06.148Z,8.10
2018-01-23T13:06:08.325Z,8.20
2018-01-23T13:09:09.702Z,8.00
2018-01-23T13:12:11.043Z,8.10
2018-01-23T13:15:12.414Z,8.20
2018-01-23T13:18:13.768Z,8.20
2018-01-23T13:21:15.199Z,8.30
2018-01-23T13:24:16.537Z,8.30
2018-01-23T13:27:18.126Z,8.40
2018-01-23T13:30:19.770Z,8.40
2018-01-23T13:33:21.114Z,8.40
2018-01-23T13:36:22.603Z,8.30
2018-01-23T13:39:25.192Z,8.60
2018-01-23T13:42:26.705Z,8.70
2018-01-23T13:45:28.223Z,8.50
2018-01-23T13:48:29.611Z,8.50
2018-01-23T13:51:31.023Z,8.60
2018-01-23T13:54:33.330Z,8.50
2018-01-23T13:57:34.778Z,8.40
2018-01-23T14:00:36.185Z,8.40
2018-01-23T14:03:39.209Z,8.40
2018-01-23T14:06:43.412Z,8.50
2018-01-23T14:09:45.694Z,8.50
2018-01-23T14:12:47.020Z,8.40
2018-01-23T14:15:49.112Z,8.40
2018-01-23T14:18:50.497Z,8.30
2018-01-23T14:21:51.948Z,8.40
2018-01-23T14:24:53.386Z,8.40
2018-01-23T14:27:54.760Z,8.50
2018-01-23T14:30:56.163Z,8.40
2018-01-23T14:33:57.497Z,8.50
2018-01-23T14:36:59.570Z,8.50
2018-01-23T14:40:01.670Z,8.50
2018-01-23T14:43:03.786Z,8.50
2018-01-23T14:46:05.090Z,8.50
2018-01-23T14:49:06.450Z,8.50
2018-01-23T14:52:07.788Z,8.50
2018-01-23T14:55:09.168Z,8.50
2018-01-23T14:58:10.512Z,8.40
2018-01-23T15:01:11.864Z,8.40
2018-01-23T15:04:13.188Z,8.40
2018-01-23T15:07:14.566Z,8.40
2018-01-23T15:10:16.252Z,8.40
2018-01-23T15:13:18.437Z,8.40
2018-01-23T15:16:20.542Z,8.40
2018-01-23T15:19:21.967Z,8.20
2018-01-23T15:22:23.372Z,8.30
2018-01-23T15:25:24.832Z,8.30
2018-01-23T15:28:26.247Z,8.20
2018-01-23T15:31:27.610Z,8.10
2018-01-23T15:34:29.028Z,8.20
2018-01-23T15:37:30.396Z,8.00
2018-01-23T15:40:31.818Z,8.20
2018-01-23T15:43:34.007Z,8.20
2018-01-23T15:46:35.352Z,8.20
2018-01-23T15:49:36.762Z,8.20
2018-01-23T15:52:38.122Z,8.20
2018-01-23T15:55:39.503Z,8.20
2018-01-23T15:58:40.983Z,8.20
2018-01-23T16:01:42.377Z,7.90
2018-01-23T16:04:43.784Z,8.30
2018-01-23T16:07:45.157Z,8.20
2018-01-23T16:10:46.557Z,8.20
2018-01-23T16:13:47.935Z,8.30
2018-01-23T16:16:49.314Z,8.20
2018-01-23T16:19:50.742Z,8.10
2018-01-23T16:22:52.135Z,8.10
2018-01-23T16:25:54.299Z,8.10
2018-01-23T16:28:55.733Z,7.90
2018-01-23T16:31:57.160Z,8.10
2018-01-23T16:34:58.523Z,8.10
2018-01-23T16:37:59.905Z,8.10
2018-01-23T16:41:01.369Z,8.00
2018-01-23T16:44:03.562Z,7.90
2018-01-23T16:47:04.940Z,7.90
2018-01-23T16:50:06.361Z,7.90
2018-01-23T16:53:08.587Z,8.00
2018-01-23T16:56:09.984Z,8.20
2018-01-23T16:59:11.376Z,8.00
2018-01-23T17:02:12.807Z,7.90
2018-01-23T17:05:14.211Z,7.80
2018-01-23T17:08:15.555Z,7.80
2018-01-23T17:11:16.929Z,8.10
2018-01-23T17:14:19.058Z,8.20
2018-01-23T17:17:20.432Z,8.00
2018-01-23T17:20:21.797Z,8.20
2018-01-23T17:23:23.914Z,8.20
2018-01-23T17:26:25.267Z,8.10
2018-01-23T17:29:26.604Z,8.40
2018-01-23T17:32:28.012Z,8.10
2018-01-23T17:35:30.185Z,8.30
2018-01-23T17:38:32.322Z,8.30
2018-01-23T17:41:33.672Z,8.20
2018-01-23T17:44:35.108Z,8.30
2018-01-23T17:47:36.523Z,8.30
2018-01-23T17:50:38.794Z,8.40
2018-01-23T17:53:40.619Z,8.30
2018-01-23T17:56:42.000Z,8.10
2018-01-23T17:59:44.092Z,8.30
2018-01-23T18:02:45.468Z,8.10
2018-01-23T18:05:46.918Z,8.30
2018-01-23T18:08:48.968Z,8.40
2018-01-23T18:11:51.446Z,8.40
2018-01-23T18:14:53.173Z,8.20
2018-01-23T18:17:54.626Z,8.30
2018-01-23T18:20:57.158Z,8.30
2018-01-23T18:23:59.845Z,8.30
2018-01-23T18:27:02.071Z,8.20
2018-01-23T18:30:04.243Z,8.40
2018-01-23T18:33:06.162Z,8.10
2018-01-23T18:36:08.108Z,8.30
2018-01-23T18:39:10.659Z,8.50
2018-01-23T18:42:13.789Z,8.30
2018-01-23T18:45:17.108Z,8.50
2018-01-23T18:48:18.688Z,8.40
2018-01-23T18:51:21.371Z,8.30
2018-01-23T18:54:23.696Z,8.20
2018-01-23T18:57:25.912Z,8.10
2018-01-23T19:00:27.417Z,8.10
2018-01-23T19:03:30.352Z,8.10
2018-01-23T19:06:31.765Z,8.00
2018-01-23T19:09:34.038Z,8.10
2018-01-23T19:12:35.863Z,8.10
2018-01-23T19:15:37.416Z,8.10
2018-01-23T19:18:39.676Z,8.20
2018-01-23T19:21:41.667Z,8.10
2018-01-23T19:24:43.125Z,8.40
2018-01-23T19:27:44.600Z,8.10
2018-01-23T19:30:46.067Z,8.10
2018-01-23T19:33:47.513Z,8.00
2018-01-23T19:36:49.021Z,7.90
2018-01-23T19:39:50.560Z,7.70
2018-01-23T19:42:52.717Z,7.90
2018-01-23T19:45:55.174Z,7.90
2018-01-23T19:48:57.352Z,7.90
2018-01-23T19:55:06.970Z,8.00
2018-01-23T19:58:08.395Z,7.70
2018-01-23T20:01:09.830Z,7.90
2018-01-23T20:04:12.475Z,8.00
2018-01-23T20:07:13.983Z,7.70
2018-01-23T20:10:16.127Z,8.00
2018-01-23T20:13:17.561Z,7.90
2018-01-23T20:16:19.046Z,8.00
2018-01-23T20:19:21.245Z,8.00
2018-01-23T20:22:22.694Z,8.00
2018-01-23T20:25:24.141Z,8.10
2018-01-23T20:28:25.587Z,7.90
2018-01-23T20:31:27.096Z,8.00
2018-01-23T20:34:28.794Z,8.00
2018-01-23T20:37:30.278Z,8.00
2018-01-23T20:40:31.743Z,8.00
2018-01-23T20:43:33.134Z,8.20
2018-01-23T20:46:35.360Z,8.10
2018-01-23T20:49:36.823Z,8.20
2018-01-23T20:52:38.972Z,8.10
2018-01-23T20:55:40.390Z,8.20
2018-01-23T20:58:42.539Z,8.10
2018-01-23T21:01:44.068Z,8.20
2018-01-23T21:04:45.565Z,8.10
2018-01-23T21:07:47.840Z,8.10
2018-01-23T21:10:49.357Z,8.10
2018-01-23T21:13:50.818Z,8.10
2018-01-23T21:16:52.564Z,8.10
2018-01-23T21:19:54.077Z,8.10
2018-01-23T21:22:55.587Z,8.10
2018-01-23T21:25:57.078Z,8.10
2018-01-23T21:28:59.718Z,8.00
2018-01-23T21:32:01.484Z,8.10
2018-01-23T21:35:04.537Z,8.10
2018-01-23T21:38:06.092Z,7.90
2018-01-23T21:41:07.591Z,7.90
2018-01-23T21:44:09.067Z,8.10
2018-01-23T21:47:10.578Z,8.10
2018-01-23T21:50:12.459Z,8.10
2018-01-23T21:53:13.986Z,8.20
2018-01-23T21:56:15.525Z,8.20
2018-01-23T21:59:17.454Z,8.20
2018-01-23T22:05:27.129Z,8.30
2018-01-23T22:08:28.933Z,8.40
2018-01-23T22:11:31.177Z,8.40
2018-01-23T22:14:32.677Z,8.20
2018-01-23T22:17:34.129Z,8.40
2018-01-23T22:20:36.305Z,8.40
2018-01-23T22:23:38.581Z,8.40
2018-01-23T22:26:40.798Z,8.50
2018-01-23T22:29:42.298Z,8.40
2018-01-23T22:32:43.782Z,8.30
2018-01-23T22:35:45.531Z,8.60
2018-01-23T22:38:47.128Z,8.60
2018-01-23T22:41:48.591Z,8.50
2018-01-23T22:44:50.011Z,8.50
2018-01-23T22:47:51.495Z,8.60
2018-01-23T22:50:52.961Z,8.50
2018-01-23T22:53:54.480Z,8.60
2018-01-23T22:56:55.932Z,8.60
2018-01-23T22:59:57.372Z,8.80
2018-01-23T23:02:58.852Z,8.70
2018-01-23T23:06:00.389Z,8.60
2018-01-23T23:09:01.889Z,8.70
2018-01-23T23:12:03.453Z,8.70
2018-01-23T23:15:05.734Z,8.70
2018-01-23T23:18:07.969Z,8.70
2018-01-23T23:21:09.413Z,8.70
2018-01-23T23:24:10.884Z,8.70
2018-01-23T23:27:12.349Z,8.80
2018-01-23T23:30:13.779Z,8.70
2018-01-23T23:33:15.293Z,8.70
2018-01-23T23:36:16.743Z,8.70
2018-01-23T23:39:18.338Z,8.70
2018-01-23T23:42:19.787Z,8.50
2018-01-23T23:45:21.277Z,8.80
2018-01-23T23:48:23.478Z,8.90
2018-01-23T23:51:24.978Z,9.00
2018-01-23T23:54:26.475Z,8.90
2018-01-23T23:57:27.931Z,8.90
